createdAt,value
2023-05-02T00:02:14.028Z,97521.78
2023-05-02T00:04:40.559Z,97516.13
2023-05-02T00:07:06.984Z,97513.47
2023-05-02T00:09:33.426Z,97496.41
2023-05-02T00:11:59.927Z,97504.63
2023-05-02T00:14:26.397Z,97506.91
2023-05-02T00:16:52.894Z,97500.22
2023-05-02T00:19:19.304Z,97501.41
2023-05-02T00:21:49.650Z,97489.72
2023-05-02T00:24:17.461Z,97488.00
2023-05-02T00:26:43.983Z,97498.88
2023-05-02T00:29:10.456Z,97506.97
2023-05-02T00:31:36.997Z,97492.38
2023-05-02T00:34:03.417Z,97472.28
2023-05-02T00:36:29.889Z,97477.22
2023-05-02T00:38:56.395Z,97471.09
2023-05-02T00:41:22.795Z,97462.13
2023-05-02T00:43:49.285Z,97464.50
2023-05-02T00:46:15.790Z,97455.47
2023-05-02T00:48:42.426Z,97451.09
2023-05-02T00:51:12.161Z,97444.88
2023-05-02T00:53:38.886Z,97456.13
2023-05-02T00:56:05.483Z,97460.41
2023-05-02T00:58:32.315Z,97470.63
2023-05-02T01:01:17.777Z,97487.47
2023-05-02T01:03:50.513Z,97481.06
2023-05-02T01:06:35.604Z,97466.81
2023-05-02T01:09:26.460Z,97456.75
2023-05-02T01:12:04.874Z,97479.88
2023-05-02T01:14:33.702Z,97482.34
2023-05-02T01:17:04.304Z,97459.22
2023-05-02T01:19:38.196Z,97479.41
2023-05-02T01:22:06.252Z,97487.81
2023-05-02T01:24:36.458Z,97483.53
2023-05-02T01:27:16.159Z,97398.16
2023-05-02T01:29:43.443Z,97497.13
2023-05-02T01:32:11.588Z,97490.91
2023-05-02T01:34:40.645Z,97483.06
2023-05-02T01:37:10.502Z,97480.88
2023-05-02T01:39:38.444Z,97469.00
2023-05-02T01:42:05.264Z,97458.22
2023-05-02T01:44:33.396Z,97460.38
2023-05-02T01:47:01.681Z,97464.88
2023-05-02T01:49:29.559Z,97459.13
2023-05-02T01:51:57.108Z,97448.53
2023-05-02T01:54:24.723Z,97443.25
2023-05-02T01:56:52.089Z,97442.34
2023-05-02T01:59:19.582Z,97437.94
2023-05-02T02:01:46.349Z,97429.72
2023-05-02T02:04:13.825Z,97434.09
2023-05-02T02:06:43.848Z,97428.34
2023-05-02T02:09:10.903Z,97350.66
2023-05-02T02:11:52.369Z,97432.38
2023-05-02T02:14:21.170Z,97428.00
2023-05-02T02:16:48.118Z,97433.13
2023-05-02T02:19:15.520Z,97435.47
2023-05-02T02:21:47.530Z,97441.22
2023-05-02T02:24:15.081Z,97447.53
2023-05-02T02:26:41.724Z,97444.44
2023-05-02T02:29:08.759Z,97448.81
2023-05-02T02:31:36.121Z,97449.44
2023-05-02T02:34:03.269Z,97449.44
2023-05-02T02:36:33.537Z,97445.41
2023-05-02T02:39:00.941Z,97435.19
2023-05-02T02:41:39.950Z,97432.47
2023-05-02T02:44:14.165Z,97438.03
2023-05-02T02:46:40.703Z,97437.03
2023-05-02T02:49:10.151Z,97438.91
2023-05-02T02:51:44.335Z,97431.91
2023-05-02T02:54:29.725Z,97433.81
2023-05-02T02:57:06.154Z,97433.91
2023-05-02T02:59:34.158Z,97440.13
2023-05-02T03:02:06.607Z,97443.03
2023-05-02T03:04:34.501Z,97447.50
2023-05-02T03:07:01.769Z,97446.13
2023-05-02T03:09:30.516Z,97461.72
2023-05-02T03:11:57.468Z,97456.91
2023-05-02T03:14:23.931Z,97457.41
2023-05-02T03:16:50.480Z,97452.03
2023-05-02T03:19:16.853Z,97455.56
2023-05-02T03:21:43.614Z,97453.09
2023-05-02T03:24:10.052Z,97465.13
2023-05-02T03:26:36.503Z,97452.84
2023-05-02T03:29:03.355Z,97459.25
2023-05-02T03:31:30.162Z,97451.97
2023-05-02T03:33:57.102Z,97444.50
2023-05-02T03:36:25.553Z,97447.34
2023-05-02T03:38:52.087Z,97452.25
2023-05-02T03:41:18.580Z,97451.69
2023-05-02T03:43:45.027Z,97457.72
2023-05-02T03:46:12.016Z,97470.25
2023-05-02T03:48:38.557Z,97473.19
2023-05-02T03:51:05.761Z,97489.94
2023-05-02T03:53:32.330Z,97481.31
2023-05-02T03:55:58.937Z,97484.25
2023-05-02T03:58:25.631Z,97493.75
2023-05-02T04:00:55.827Z,97496.94
2023-05-02T04:03:22.808Z,97491.16
2023-05-02T04:05:49.353Z,97502.09
2023-05-02T04:08:15.771Z,97505.06
2023-05-02T04:10:42.221Z,97507.50
2023-05-02T04:13:08.593Z,97520.19
2023-05-02T04:15:36.667Z,97408.31
2023-05-02T04:18:03.134Z,97516.34
2023-05-02T04:20:29.623Z,97417.13
2023-05-02T04:22:56.235Z,97541.66
2023-05-02T04:25:22.582Z,97546.72
2023-05-02T04:27:48.963Z,97551.72
2023-05-02T04:30:15.474Z,97559.72
2023-05-02T04:32:41.927Z,97561.72
2023-05-02T04:35:09.868Z,97573.47
2023-05-02T04:37:36.334Z,97578.63
2023-05-02T04:40:05.028Z,97577.94
2023-05-02T04:42:31.568Z,97575.47
2023-05-02T04:44:57.968Z,97592.16
2023-05-02T04:47:24.413Z,97598.09
2023-05-02T04:49:50.983Z,97606.03
2023-05-02T04:52:18.708Z,97613.63
2023-05-02T04:54:47.740Z,97603.41
2023-05-02T04:57:14.418Z,97621.06
2023-05-02T04:59:40.849Z,97624.84
2023-05-02T05:02:08.415Z,97633.06
2023-05-02T05:04:35.172Z,97631.59
2023-05-02T05:07:01.744Z,97628.81
2023-05-02T05:09:28.342Z,97659.78
2023-05-02T05:11:54.771Z,97636.72
2023-05-02T05:14:21.279Z,97633.03
2023-05-02T05:16:47.877Z,97639.41
2023-05-02T05:19:14.587Z,97644.78
2023-05-02T05:21:42.636Z,97645.75
2023-05-02T05:24:09.322Z,97641.69
2023-05-02T05:26:35.837Z,97650.13
2023-05-02T05:29:02.786Z,97650.47
2023-05-02T05:31:29.381Z,97663.47
2023-05-02T05:33:56.002Z,97659.25
2023-05-02T05:36:23.751Z,97656.38
2023-05-02T05:38:50.946Z,97650.63
2023-05-02T05:41:17.722Z,97659.16
2023-05-02T05:43:44.358Z,97656.16
2023-05-02T05:46:10.920Z,97642.16
2023-05-02T05:48:37.364Z,97656.63
2023-05-02T05:51:07.457Z,97652.63
2023-05-02T05:53:34.126Z,97644.00
2023-05-02T05:56:08.427Z,97640.84
2023-05-02T05:58:35.092Z,97646.59
2023-05-02T06:01:02.154Z,97635.84
2023-05-02T06:03:28.789Z,97666.59
2023-05-02T06:05:55.426Z,97674.19
2023-05-02T06:08:21.919Z,97684.78
2023-05-02T06:10:48.354Z,97680.13
2023-05-02T06:13:14.717Z,97681.41
2023-05-02T06:15:41.320Z,97696.09
2023-05-02T06:18:07.915Z,97706.16
2023-05-02T06:20:35.719Z,97716.97
2023-05-02T06:23:02.256Z,97715.03
2023-05-02T06:25:29.138Z,97636.44
2023-05-02T06:27:56.861Z,97719.16
2023-05-02T06:30:23.361Z,97724.72
2023-05-02T06:32:49.886Z,97735.06
2023-05-02T06:35:16.788Z,97741.47
2023-05-02T06:37:43.679Z,97746.44
2023-05-02T06:40:10.402Z,97736.06
2023-05-02T06:42:36.941Z,97752.91
2023-05-02T06:45:03.500Z,97755.88
2023-05-02T06:47:29.952Z,97742.69
2023-05-02T06:49:56.577Z,97764.06
2023-05-02T06:52:23.216Z,97770.75
2023-05-02T06:54:49.645Z,97762.59
2023-05-02T06:57:16.342Z,97777.09
2023-05-02T06:59:43.303Z,97784.22
2023-05-02T07:02:09.735Z,97787.59
2023-05-02T07:04:36.506Z,97802.59
2023-05-02T07:07:04.032Z,97804.78
2023-05-02T07:09:30.639Z,97802.81
2023-05-02T07:11:57.137Z,97787.91
2023-05-02T07:14:23.510Z,97784.38
2023-05-02T07:16:50.068Z,97785.19
2023-05-02T07:19:16.692Z,97810.88
2023-05-02T07:21:43.108Z,97839.13
2023-05-02T07:24:09.518Z,97823.84
2023-05-02T07:26:36.472Z,97820.97
2023-05-02T07:29:02.935Z,97831.81
2023-05-02T07:31:29.890Z,97835.16
2023-05-02T07:33:56.414Z,97806.75
2023-05-02T07:36:22.926Z,97817.38
2023-05-02T07:38:49.394Z,97817.31
2023-05-02T07:41:15.874Z,97840.78
2023-05-02T07:43:42.942Z,97835.00
2023-05-02T07:46:09.394Z,97866.03
2023-05-02T07:48:36.026Z,97875.25
2023-05-02T07:51:09.300Z,97897.16
2023-05-02T07:53:36.037Z,97953.03
2023-05-02T07:56:07.197Z,97977.41
2023-05-02T07:58:33.660Z,98079.41
2023-05-02T08:01:00.178Z,98151.88
2023-05-02T08:03:28.193Z,98195.44
2023-05-02T08:05:54.747Z,98189.72
2023-05-02T08:08:21.127Z,98296.75
2023-05-02T08:10:47.646Z,98431.28
2023-05-02T08:13:14.028Z,98564.56
2023-05-02T08:15:40.454Z,98887.34
2023-05-02T08:18:07.155Z,99086.53
2023-05-02T08:20:33.640Z,99186.19
2023-05-02T08:23:00.525Z,99108.28
2023-05-02T08:25:27.116Z,99134.84
2023-05-02T08:27:53.600Z,99102.84
2023-05-02T08:30:20.061Z,99058.16
2023-05-02T08:32:47.277Z,99022.72
2023-05-02T08:35:13.928Z,99018.25
2023-05-02T08:37:40.841Z,98974.47
2023-05-02T08:40:11.411Z,98725.56
2023-05-02T08:42:37.818Z,98300.53
2023-05-02T08:45:04.617Z,97964.16
2023-05-02T08:47:31.950Z,97935.41
2023-05-02T08:49:59.616Z,97904.94
2023-05-02T08:52:27.304Z,97929.75
2023-05-02T08:54:54.262Z,97953.06
2023-05-02T08:57:20.748Z,97993.59
2023-05-02T08:59:48.698Z,98078.22
2023-05-02T09:02:20.864Z,98525.72
2023-05-02T09:04:51.006Z,98893.31
2023-05-02T09:07:17.630Z,99262.59
2023-05-02T09:09:44.215Z,99368.69
2023-05-02T09:12:10.622Z,99404.66
2023-05-02T09:14:37.087Z,99427.47
2023-05-02T09:17:03.940Z,99423.25
2023-05-02T09:19:31.365Z,99416.72
2023-05-02T09:22:03.679Z,99351.25
2023-05-02T09:24:30.241Z,99265.81
2023-05-02T09:27:01.239Z,99251.66
2023-05-02T09:29:30.698Z,99222.31
2023-05-02T09:31:57.347Z,99240.00
2023-05-02T09:34:24.894Z,99259.88
2023-05-02T09:36:54.620Z,99267.69
2023-05-02T09:39:25.537Z,99298.22
2023-05-02T09:41:52.795Z,99312.53
2023-05-02T09:44:20.288Z,99350.56
2023-05-02T09:46:50.912Z,99374.09
2023-05-02T09:49:20.883Z,99446.16
2023-05-02T09:51:47.873Z,99378.63
2023-05-02T09:54:14.909Z,99496.72
2023-05-02T09:56:54.257Z,99511.53
2023-05-02T09:59:20.771Z,99512.59
2023-05-02T10:01:55.087Z,99517.34
2023-05-02T10:04:22.037Z,99511.38
2023-05-02T10:06:51.531Z,99523.44
2023-05-02T10:09:21.601Z,99526.13
2023-05-02T10:11:51.555Z,99515.28
2023-05-02T10:14:19.578Z,99524.06
2023-05-02T10:16:55.550Z,99526.22
2023-05-02T10:19:27.186Z,99523.13
2023-05-02T10:21:53.719Z,99522.16
2023-05-02T10:24:21.045Z,99532.31
2023-05-02T10:26:48.397Z,99534.63
2023-05-02T10:29:15.050Z,99531.09
2023-05-02T10:31:44.787Z,99535.75
2023-05-02T10:34:11.793Z,99536.16
2023-05-02T10:36:38.390Z,99540.84
2023-05-02T10:39:05.355Z,99533.44
2023-05-02T10:41:33.439Z,99524.19
2023-05-02T10:44:00.675Z,99516.84
2023-05-02T10:46:35.820Z,99495.00
2023-05-02T10:49:08.600Z,99488.84
2023-05-02T10:51:36.322Z,99484.81
2023-05-02T10:54:14.866Z,99496.16
2023-05-02T10:57:09.351Z,99491.31
2023-05-02T10:59:35.757Z,99494.50
2023-05-02T11:02:03.120Z,99505.50
2023-05-02T11:04:50.582Z,99516.50
2023-05-02T11:07:17.727Z,99528.75
2023-05-02T11:09:44.311Z,99541.41
2023-05-02T11:12:10.920Z,99556.03
2023-05-02T11:14:40.568Z,99543.84
2023-05-02T11:17:08.544Z,99555.25
2023-05-02T11:19:37.784Z,99556.53
2023-05-02T11:22:20.684Z,99560.28
2023-05-02T11:24:48.110Z,99570.06
2023-05-02T11:27:29.855Z,99585.31
2023-05-02T11:29:56.318Z,99587.13
2023-05-02T11:32:23.529Z,99582.44
2023-05-02T11:34:53.097Z,99588.03
2023-05-02T11:37:21.173Z,99590.97
2023-05-02T11:39:47.691Z,99594.25
2023-05-02T11:42:30.274Z,99586.69
2023-05-02T11:45:01.343Z,99590.09
2023-05-02T11:47:29.723Z,99495.47
2023-05-02T11:49:56.829Z,99514.50
2023-05-02T11:52:23.728Z,99603.19
2023-05-02T11:54:53.668Z,99591.31
2023-05-02T11:57:20.098Z,99602.13
2023-05-02T11:59:53.500Z,99615.59
2023-05-02T12:02:21.247Z,99602.41
2023-05-02T12:04:52.171Z,99524.66
2023-05-02T12:07:18.757Z,99612.09
2023-05-02T12:09:52.566Z,99612.88
2023-05-02T12:12:21.921Z,99617.78
2023-05-02T12:14:48.682Z,99620.88
2023-05-02T12:17:15.213Z,99619.03
2023-05-02T12:19:41.768Z,99602.03
2023-05-02T12:22:09.084Z,99603.97
2023-05-02T12:24:36.738Z,99597.72
2023-05-02T12:27:13.325Z,99598.97
2023-05-02T12:29:49.640Z,99595.34
2023-05-02T12:32:27.728Z,99610.06
2023-05-02T12:34:54.932Z,99608.22
2023-05-02T12:37:25.179Z,99610.72
2023-05-02T12:39:52.785Z,99520.56
2023-05-02T12:42:20.234Z,99606.25
2023-05-02T12:44:47.603Z,99604.75
2023-05-02T12:47:15.285Z,99599.66
2023-05-02T12:49:51.860Z,99574.28
2023-05-02T12:52:22.173Z,99588.84
2023-05-02T12:54:48.631Z,99579.66
2023-05-02T12:57:22.771Z,99597.59
2023-05-02T12:59:51.518Z,99593.53
2023-05-02T13:02:17.935Z,99492.03
2023-05-02T13:04:44.398Z,99571.16
2023-05-02T13:07:11.334Z,99578.44
2023-05-02T13:09:37.880Z,99581.31
2023-05-02T13:12:04.584Z,99591.63
2023-05-02T13:14:31.225Z,99578.47
2023-05-02T13:17:01.003Z,99584.59
2023-05-02T13:19:31.304Z,99564.22
2023-05-02T13:21:58.101Z,99570.84
2023-05-02T13:24:24.585Z,99580.34
2023-05-02T13:26:51.470Z,99567.03
2023-05-02T13:29:17.950Z,99559.13
2023-05-02T13:31:44.519Z,99546.22
2023-05-02T13:34:10.942Z,99551.16
2023-05-02T13:36:40.930Z,99572.16
2023-05-02T13:39:07.332Z,99567.84
2023-05-02T13:41:33.885Z,99580.34
2023-05-02T13:44:00.769Z,99569.63
2023-05-02T13:46:27.208Z,99571.56
2023-05-02T13:48:53.715Z,99494.88
2023-05-02T13:51:20.086Z,99562.13
2023-05-02T13:53:46.598Z,99568.69
2023-05-02T13:56:13.117Z,99563.34
2023-05-02T13:58:39.549Z,99521.69
2023-05-02T14:01:06.324Z,99480.41
2023-05-02T14:03:32.877Z,99486.41
2023-05-02T14:05:59.490Z,99483.00
2023-05-02T14:08:26.241Z,99486.59
2023-05-02T14:10:52.619Z,99511.56
2023-05-02T14:13:19.022Z,99497.63
2023-05-02T14:15:45.632Z,99533.38
2023-05-02T14:18:12.191Z,99543.13
2023-05-02T14:20:38.622Z,99539.31
2023-05-02T14:23:06.903Z,99546.78
2023-05-02T14:25:35.614Z,99555.44
2023-05-02T14:28:02.910Z,99546.09
2023-05-02T14:30:29.735Z,99557.69
2023-05-02T14:32:56.155Z,99543.75
2023-05-02T14:35:22.891Z,99559.03
2023-05-02T14:37:49.717Z,99556.69
2023-05-02T14:40:16.257Z,99559.03
2023-05-02T14:42:43.364Z,99569.50
2023-05-02T14:45:10.000Z,99570.63
2023-05-02T14:47:36.585Z,99560.13
2023-05-02T14:50:03.687Z,99561.19
2023-05-02T14:52:30.423Z,99522.34
2023-05-02T14:54:59.307Z,99502.28
2023-05-02T14:57:26.077Z,99483.63
2023-05-02T14:59:52.517Z,99453.56
2023-05-02T15:02:19.054Z,99505.09
2023-05-02T15:04:45.662Z,99509.19
2023-05-02T15:07:12.192Z,99476.16
2023-05-02T15:09:38.964Z,99503.66
2023-05-02T15:12:05.475Z,99505.50
2023-05-02T15:14:31.854Z,99527.69
2023-05-02T15:16:58.400Z,99537.75
2023-05-02T15:19:28.437Z,99537.09
2023-05-02T15:21:57.421Z,99538.06
2023-05-02T15:24:27.261Z,99520.59
2023-05-02T15:26:53.810Z,99504.38
2023-05-02T15:29:21.318Z,99515.44
2023-05-02T15:31:47.855Z,99521.97
2023-05-02T15:34:15.068Z,99515.44
2023-05-02T15:36:43.149Z,99499.97
2023-05-02T15:39:09.668Z,99510.00
2023-05-02T15:41:36.036Z,99537.66
2023-05-02T15:44:02.730Z,99537.09
2023-05-02T15:46:29.294Z,99582.13
2023-05-02T15:48:56.385Z,99607.16
2023-05-02T15:51:22.816Z,99622.13
2023-05-02T15:53:52.717Z,99619.47
2023-05-02T15:56:21.262Z,99628.84
2023-05-02T15:58:48.438Z,99629.69
2023-05-02T16:01:15.010Z,99613.03
2023-05-02T16:03:42.174Z,99620.88
2023-05-02T16:06:08.897Z,99594.59
2023-05-02T16:08:35.928Z,99613.47
2023-05-02T16:11:02.315Z,99621.00
2023-05-02T16:13:28.863Z,99600.31
2023-05-02T16:15:56.244Z,99608.13
2023-05-02T16:18:28.272Z,99628.41
2023-05-02T16:20:56.201Z,99618.22
2023-05-02T16:23:23.787Z,99609.53
2023-05-02T16:25:50.483Z,99621.84
2023-05-02T16:28:17.030Z,99648.41
2023-05-02T16:30:43.396Z,99638.88
2023-05-02T16:33:09.905Z,99635.84
2023-05-02T16:35:37.472Z,99656.22
2023-05-02T16:38:04.145Z,99662.34
2023-05-02T16:40:31.479Z,99661.50
2023-05-02T16:42:57.867Z,99653.69
2023-05-02T16:45:24.399Z,99662.50
2023-05-02T16:47:51.014Z,99664.31
2023-05-02T16:50:17.528Z,99636.59
2023-05-02T16:52:44.744Z,99645.84
2023-05-02T16:55:11.254Z,99627.31
2023-05-02T16:57:39.133Z,99629.63
2023-05-02T17:00:08.473Z,99651.84
2023-05-02T17:02:35.053Z,99631.25
2023-05-02T17:05:01.601Z,99647.25
2023-05-02T17:07:28.395Z,99628.50
2023-05-02T17:09:54.841Z,99632.97
2023-05-02T17:12:25.755Z,99653.38
2023-05-02T17:14:52.418Z,99621.34
2023-05-02T17:17:22.713Z,99645.88
2023-05-02T17:19:49.741Z,99632.47
2023-05-02T17:22:16.580Z,99630.91
2023-05-02T17:24:43.298Z,99645.41
2023-05-02T17:27:11.266Z,99647.00
2023-05-02T17:29:37.668Z,99660.78
2023-05-02T17:32:04.101Z,99660.00
2023-05-02T17:34:31.121Z,99664.41
2023-05-02T17:36:57.498Z,99662.81
2023-05-02T17:39:23.941Z,99669.66
2023-05-02T17:41:50.545Z,99673.38
2023-05-02T17:44:17.052Z,99676.84
2023-05-02T17:46:43.969Z,99663.44
2023-05-02T17:49:10.527Z,99685.34
2023-05-02T17:51:36.941Z,99688.31
2023-05-02T17:54:03.362Z,99687.75
2023-05-02T17:56:30.203Z,99707.28
2023-05-02T17:58:57.186Z,99690.19
2023-05-02T18:01:23.660Z,99699.88
2023-05-02T18:03:50.196Z,99712.84
2023-05-02T18:06:17.148Z,99720.56
2023-05-02T18:08:44.247Z,99723.88
2023-05-02T18:11:14.577Z,99728.13
2023-05-02T18:13:41.096Z,99731.38
2023-05-02T18:16:07.945Z,99680.59
2023-05-02T18:18:36.296Z,99739.50
2023-05-02T18:21:03.388Z,99752.50
2023-05-02T18:23:29.879Z,99750.56
2023-05-02T18:25:56.329Z,99768.91
2023-05-02T18:28:22.826Z,99748.03
2023-05-02T18:30:49.323Z,99761.25
2023-05-02T18:33:16.110Z,99761.91
2023-05-02T18:38:07.752Z,99750.22
2023-05-02T18:40:34.535Z,99764.09
2023-05-02T18:43:01.114Z,99755.28
2023-05-02T18:45:28.398Z,99786.34
2023-05-02T18:47:55.173Z,99795.97
2023-05-02T18:50:22.288Z,99804.16
2023-05-02T18:52:48.909Z,99816.19
2023-05-02T18:55:15.654Z,99807.53
2023-05-02T18:57:44.576Z,99805.13
2023-05-02T19:00:12.346Z,99804.28
2023-05-02T19:02:39.183Z,99810.56
2023-05-02T19:05:09.653Z,99779.75
2023-05-02T19:07:38.498Z,99734.13
2023-05-02T19:10:05.825Z,99820.84
2023-05-02T19:12:32.549Z,99826.84
2023-05-02T19:15:00.211Z,99835.00
2023-05-02T19:17:27.702Z,99814.31
2023-05-02T19:19:56.303Z,99849.94
2023-05-02T19:22:27.691Z,99851.84
2023-05-02T19:24:55.253Z,99860.97
2023-05-02T19:27:22.039Z,99861.59
2023-05-02T19:29:48.572Z,99873.38
2023-05-02T19:32:15.836Z,99884.66
2023-05-02T19:34:42.491Z,99877.31
2023-05-02T19:37:09.071Z,99876.56
2023-05-02T19:39:35.843Z,99871.16
2023-05-02T19:42:08.407Z,99877.94
2023-05-02T19:47:05.268Z,99877.91
2023-05-02T19:49:31.926Z,99876.44
2023-05-02T19:51:58.545Z,99871.53
2023-05-02T19:54:25.296Z,99869.44
2023-05-02T19:56:51.931Z,99874.81
2023-05-02T19:59:18.546Z,99873.19
2023-05-02T20:01:46.810Z,99829.84
2023-05-02T20:04:14.084Z,99886.88
2023-05-02T20:06:40.929Z,99854.31
2023-05-02T20:09:09.360Z,99883.75
2023-05-02T20:11:35.951Z,99855.31
2023-05-02T20:14:02.932Z,99857.88
2023-05-02T20:16:31.440Z,99888.47
2023-05-02T20:18:58.202Z,99859.81
2023-05-02T20:21:24.917Z,99884.81
2023-05-02T20:23:51.416Z,99878.63
2023-05-02T20:26:18.765Z,99831.97
2023-05-02T20:28:45.346Z,99786.78
2023-05-02T20:31:11.943Z,99764.03
2023-05-02T20:33:45.055Z,99759.66
2023-05-02T20:36:15.799Z,99753.78
2023-05-02T20:38:43.079Z,99661.59
2023-05-02T20:41:12.929Z,99558.28
2023-05-02T20:43:45.130Z,99415.97
2023-05-02T20:46:13.494Z,99363.69
2023-05-02T20:48:40.460Z,99294.59
2023-05-02T20:51:08.085Z,99221.25
2023-05-02T20:53:38.248Z,99253.59
2023-05-02T20:56:05.306Z,99291.22
2023-05-02T20:58:32.216Z,99278.66
2023-05-02T21:00:59.258Z,99322.09
2023-05-02T21:03:27.872Z,99386.19
2023-05-02T21:05:56.369Z,99358.81
2023-05-02T21:08:23.212Z,99335.06
2023-05-02T21:10:50.052Z,99341.78
2023-05-02T21:13:16.935Z,99298.72
2023-05-02T21:15:43.610Z,99313.81
2023-05-02T21:18:10.385Z,99325.53
2023-05-02T21:20:38.197Z,99390.22
2023-05-02T21:23:04.842Z,99414.97
2023-05-02T21:25:31.413Z,99530.63
2023-05-02T21:27:58.156Z,99583.38
2023-05-02T21:30:24.985Z,99601.94
2023-05-02T21:32:51.637Z,99542.44
2023-05-02T21:35:18.226Z,99520.78
2023-05-02T21:37:44.819Z,99448.63
2023-05-02T21:40:11.970Z,99379.53
2023-05-02T21:42:38.594Z,99367.94
2023-05-02T21:45:06.032Z,99321.81
2023-05-02T21:47:32.857Z,99343.38
2023-05-02T21:50:00.235Z,99323.97
2023-05-02T21:52:27.356Z,99282.63
2023-05-02T21:54:54.621Z,99279.44
2023-05-02T21:57:21.298Z,99274.47
2023-05-02T21:59:48.189Z,99210.78
2023-05-02T22:02:14.853Z,99217.78
2023-05-02T22:04:41.757Z,99223.41
2023-05-02T22:07:08.389Z,99214.81
2023-05-02T22:09:35.144Z,99220.22
2023-05-02T22:12:03.005Z,99365.44
2023-05-02T22:14:37.581Z,99471.56
2023-05-02T22:17:11.687Z,99391.84
2023-05-02T22:19:39.347Z,99430.78
2023-05-02T22:22:06.906Z,99415.91
2023-05-02T22:24:36.895Z,99283.28
2023-05-02T22:27:03.452Z,99282.88
2023-05-02T22:29:30.523Z,99186.84
2023-05-02T22:31:57.148Z,99115.53
2023-05-02T22:34:23.844Z,99053.59
2023-05-02T22:36:50.597Z,98965.63
2023-05-02T22:39:17.289Z,98965.56
2023-05-02T22:41:44.311Z,98875.69
2023-05-02T22:44:11.404Z,98719.66
2023-05-02T22:46:39.109Z,98703.84
2023-05-02T22:49:10.429Z,98646.41
2023-05-02T22:51:40.285Z,98552.16
2023-05-02T22:54:08.178Z,98606.72
2023-05-02T22:56:35.122Z,98609.66
2023-05-02T22:59:01.878Z,98605.50
2023-05-02T23:01:28.479Z,98574.13
2023-05-02T23:03:55.350Z,98555.25
2023-05-02T23:06:21.966Z,98511.47
2023-05-02T23:08:48.610Z,98523.38
2023-05-02T23:11:15.300Z,98476.69
2023-05-02T23:13:41.830Z,98453.19
2023-05-02T23:16:08.468Z,98478.59
2023-05-02T23:18:35.185Z,98464.16
2023-05-02T23:21:03.556Z,98415.97
2023-05-02T23:23:30.761Z,98413.94
2023-05-02T23:25:57.521Z,98445.06
2023-05-02T23:28:24.092Z,98431.19
2023-05-02T23:30:51.178Z,98435.38
2023-05-02T23:33:17.913Z,98418.91
2023-05-02T23:35:44.549Z,98441.28
2023-05-02T23:38:11.189Z,98430.81
2023-05-02T23:40:37.750Z,98400.97
2023-05-02T23:43:05.069Z,98434.38
2023-05-02T23:45:31.699Z,98440.41
2023-05-02T23:47:58.260Z,98434.84
2023-05-02T23:50:24.890Z,98422.31
2023-05-02T23:52:51.489Z,98405.44
2023-05-02T23:55:17.997Z,98434.56
2023-05-02T23:57:45.337Z,98442.09
